createdAt,value
2023-04-26T00:00:47.826Z,0.70
2023-04-26T00:05:47.789Z,0.80
2023-04-26T00:10:47.695Z,0.80
2023-04-26T00:15:47.625Z,0.80
2023-04-26T00:20:47.574Z,0.90
2023-04-26T00:25:47.508Z,0.90
2023-04-26T00:30:47.441Z,1.00
2023-04-26T00:35:47.402Z,0.80
2023-04-26T00:40:47.282Z,0.80
2023-04-26T00:45:47.254Z,0.80
2023-04-26T00:50:47.157Z,0.80
2023-04-26T00:55:47.147Z,0.90
2023-04-26T01:00:47.050Z,0.60
2023-04-26T01:05:46.963Z,1.00
2023-04-26T01:10:46.897Z,0.70
2023-04-26T01:15:46.827Z,0.50
2023-04-26T01:20:46.764Z,1.00
2023-04-26T01:25:46.715Z,0.70
2023-04-26T01:30:46.689Z,0.90
2023-04-26T01:35:46.563Z,0.90
2023-04-26T01:40:46.492Z,0.80
2023-04-26T01:45:46.424Z,0.70
2023-04-26T01:50:46.361Z,1.10
2023-04-26T01:55:46.289Z,0.80
2023-04-26T02:00:46.222Z,1.00
2023-04-26T02:05:46.158Z,1.10
2023-04-26T02:10:46.107Z,1.60
2023-04-26T02:15:46.058Z,1.29
2023-04-26T02:20:45.991Z,1.00
2023-04-26T02:25:45.897Z,1.70
2023-04-26T02:30:45.827Z,1.50
2023-04-26T02:35:45.779Z,1.20
2023-04-26T02:40:45.720Z,1.50
2023-04-26T02:45:45.636Z,1.20
2023-04-26T02:50:45.566Z,1.39
2023-04-26T02:55:45.505Z,1.29
2023-04-26T03:00:45.480Z,1.29
2023-04-26T03:05:45.372Z,1.70
2023-04-26T03:10:45.317Z,1.50
2023-04-26T03:15:45.247Z,1.60
2023-04-26T03:20:45.191Z,1.60
2023-04-26T03:25:45.113Z,1.20
2023-04-26T03:30:45.057Z,1.20
2023-04-26T03:35:44.986Z,1.50
2023-04-26T03:40:44.926Z,1.70
2023-04-26T03:45:44.912Z,1.20
2023-04-26T03:50:44.800Z,1.10
2023-04-26T03:55:44.722Z,1.20
2023-04-26T04:00:44.658Z,1.50
2023-04-26T04:05:44.614Z,1.50
2023-04-26T04:10:44.525Z,1.20
2023-04-26T04:15:44.466Z,1.00
2023-04-26T04:20:44.404Z,1.29
2023-04-26T04:25:44.324Z,1.29
2023-04-26T04:30:44.266Z,1.10
2023-04-26T04:35:44.195Z,1.50
2023-04-26T04:40:44.138Z,1.20
2023-04-26T04:45:44.063Z,1.79
2023-04-26T04:50:44.025Z,1.50
2023-04-26T04:55:43.940Z,1.20
2023-04-26T05:00:43.899Z,1.10
2023-04-26T05:05:43.801Z,1.20
2023-04-26T05:10:43.749Z,1.70
2023-04-26T05:15:43.686Z,1.60
2023-04-26T05:20:43.623Z,1.60
2023-04-26T05:25:43.549Z,1.90
2023-04-26T05:30:43.486Z,2.00
2023-04-26T05:35:43.414Z,1.29
2023-04-26T05:40:43.362Z,2.20
2023-04-26T05:45:43.311Z,2.20
2023-04-26T05:50:43.233Z,1.60
2023-04-26T05:55:43.157Z,1.50
2023-04-26T06:00:43.090Z,2.20
2023-04-26T06:05:43.086Z,1.39
2023-04-26T06:10:42.962Z,1.60
2023-04-26T06:15:42.889Z,1.50
2023-04-26T06:20:42.844Z,1.39
2023-04-26T06:25:42.753Z,1.39
2023-04-26T06:30:42.728Z,1.70
2023-04-26T06:35:42.644Z,1.39
2023-04-26T06:40:42.568Z,1.20
2023-04-26T06:45:43.618Z,1.50
2023-04-26T06:50:42.461Z,1.50
2023-04-26T06:55:42.368Z,0.90
2023-04-26T07:00:42.308Z,0.90
2023-04-26T07:05:42.275Z,1.29
2023-04-26T07:10:42.191Z,1.29
2023-04-26T07:15:42.195Z,0.80
2023-04-26T07:20:42.096Z,1.10
2023-04-26T07:25:41.981Z,0.90
2023-04-26T07:30:41.915Z,1.00
2023-04-26T07:35:41.837Z,0.90
2023-04-26T07:40:41.778Z,0.80
2023-04-26T07:45:41.733Z,0.70
2023-04-26T07:50:41.683Z,0.70
2023-04-26T07:55:41.579Z,0.90
2023-04-26T08:00:41.518Z,1.29
2023-04-26T08:05:41.688Z,1.29
2023-04-26T08:10:41.381Z,0.80
2023-04-26T08:15:41.325Z,1.10
2023-04-26T08:20:41.266Z,0.90
2023-04-26T08:25:41.182Z,0.80
2023-04-26T08:30:41.153Z,0.80
2023-04-26T08:35:41.100Z,1.00
2023-04-26T08:40:41.025Z,0.80
2023-04-26T08:45:40.924Z,1.00
2023-04-26T08:50:40.886Z,1.10
2023-04-26T08:55:40.806Z,0.80
2023-04-26T09:00:40.742Z,0.80
2023-04-26T09:05:40.676Z,1.00
2023-04-26T09:10:40.611Z,0.70
2023-04-26T09:15:40.577Z,0.60
2023-04-26T09:20:40.488Z,0.80
2023-04-26T09:25:40.406Z,0.50
2023-04-26T09:30:40.350Z,0.70
2023-04-26T09:35:40.277Z,0.80
2023-04-26T09:40:40.218Z,0.80
2023-04-26T09:45:40.144Z,0.50
2023-04-26T09:50:40.093Z,0.80
2023-04-26T09:55:40.014Z,0.60
2023-04-26T10:00:39.995Z,0.50
2023-04-26T10:05:39.885Z,0.60
2023-04-26T10:10:39.826Z,0.40
2023-04-26T10:15:39.759Z,0.90
2023-04-26T10:20:39.696Z,0.70
2023-04-26T10:25:39.722Z,0.70
2023-04-26T10:30:39.768Z,0.60
2023-04-26T10:35:39.694Z,0.90
2023-04-26T10:40:39.844Z,0.70
2023-04-26T10:45:39.899Z,0.80
2023-04-26T10:50:39.856Z,0.90
2023-04-26T10:55:39.894Z,0.50
2023-04-26T11:00:39.182Z,0.70
2023-04-26T11:05:39.101Z,0.90
2023-04-26T11:10:39.059Z,1.00
2023-04-26T11:15:39.049Z,7.30
2023-04-26T11:20:38.922Z,6.69
2023-04-26T11:25:38.841Z,2.40
2023-04-26T11:30:38.784Z,0.90
2023-04-26T11:35:38.712Z,1.10
2023-04-26T11:40:38.675Z,0.90
2023-04-26T11:45:38.636Z,0.70
2023-04-26T11:50:38.517Z,0.70
2023-04-26T11:55:38.458Z,0.80
2023-04-26T12:00:38.409Z,0.60
2023-04-26T12:05:38.522Z,0.70
2023-04-26T12:10:38.249Z,0.80
2023-04-26T12:15:38.178Z,0.90
2023-04-26T12:20:38.115Z,1.20
2023-04-26T12:25:38.055Z,1.60
2023-04-26T12:30:37.989Z,1.20
2023-04-26T12:35:37.908Z,0.70
2023-04-26T12:40:37.858Z,0.80
2023-04-26T12:45:37.776Z,0.80
2023-04-26T12:50:37.715Z,1.00
2023-04-26T12:55:37.648Z,1.00
2023-04-26T13:00:37.586Z,1.10
2023-04-26T13:05:37.534Z,0.90
2023-04-26T13:10:37.463Z,0.90
2023-04-26T13:15:37.418Z,0.80
2023-04-26T13:20:37.330Z,0.70
2023-04-26T13:25:37.263Z,1.00
2023-04-26T13:30:37.200Z,1.29
2023-04-26T13:35:37.129Z,1.10
2023-04-26T13:40:37.069Z,0.80
2023-04-26T13:45:39.968Z,0.80
2023-04-26T13:50:36.951Z,0.90
2023-04-26T13:55:36.869Z,0.90
2023-04-26T14:00:36.796Z,1.00
2023-04-26T14:05:36.755Z,0.90
2023-04-26T14:10:36.663Z,1.10
2023-04-26T14:15:36.603Z,0.90
2023-04-26T14:20:36.541Z,0.90
2023-04-26T14:25:36.480Z,1.29
2023-04-26T14:30:36.419Z,1.00
2023-04-26T14:35:36.353Z,0.90
2023-04-26T14:40:36.293Z,0.90
2023-04-26T14:45:43.963Z,1.00
2023-04-26T14:50:36.153Z,1.00
2023-04-26T14:55:36.097Z,0.80
2023-04-26T15:00:36.027Z,1.60
2023-04-26T15:05:35.971Z,0.90
2023-04-26T15:10:35.924Z,1.00
2023-04-26T15:15:35.842Z,0.80
2023-04-26T15:20:35.766Z,0.80
2023-04-26T15:25:35.703Z,0.70
2023-04-26T15:30:35.635Z,0.70
2023-04-26T15:35:35.573Z,1.00
2023-04-26T15:40:38.077Z,1.10
2023-04-26T15:45:35.443Z,0.80
2023-04-26T15:50:35.408Z,0.70
2023-04-26T15:55:35.470Z,0.70
2023-04-26T16:00:35.236Z,0.90
2023-04-26T16:05:35.180Z,2.00
2023-04-26T16:10:36.333Z,0.80
2023-04-26T16:15:35.048Z,0.80
2023-04-26T16:20:34.974Z,0.80
2023-04-26T16:25:34.915Z,0.80
2023-04-26T16:30:34.844Z,0.70
2023-04-26T16:35:34.788Z,0.90
2023-04-26T16:40:34.713Z,0.70
2023-04-26T16:45:34.652Z,0.70
2023-04-26T16:50:34.582Z,0.90
2023-04-26T16:55:34.521Z,0.90
2023-04-26T17:00:34.449Z,1.20
2023-04-26T17:05:34.388Z,0.50
2023-04-26T17:10:34.313Z,1.00
2023-04-26T17:15:34.256Z,0.70
2023-04-26T17:20:34.183Z,0.80
2023-04-26T17:25:34.133Z,3.59
2023-04-26T17:30:34.049Z,1.20
2023-04-26T17:35:33.992Z,1.00
2023-04-26T17:40:33.917Z,0.90
2023-04-26T17:45:33.883Z,1.00
2023-04-26T17:50:33.805Z,0.90
2023-04-26T17:55:33.734Z,0.60
2023-04-26T18:00:33.830Z,0.80
2023-04-26T18:05:33.861Z,1.60
2023-04-26T18:10:33.534Z,1.90
2023-04-26T18:15:33.461Z,1.10
2023-04-26T18:20:33.420Z,1.10
2023-04-26T18:25:33.335Z,1.00
2023-04-26T18:30:33.275Z,0.90
2023-04-26T18:35:33.201Z,0.90
2023-04-26T18:40:33.148Z,0.90
2023-04-26T18:45:33.065Z,0.80
2023-04-26T18:50:33.013Z,1.20
2023-04-26T18:55:32.930Z,1.10
2023-04-26T19:00:32.872Z,1.20
2023-04-26T19:05:32.803Z,1.29
2023-04-26T19:10:32.746Z,1.10
2023-04-26T19:15:32.685Z,2.09
2023-04-26T19:20:32.613Z,1.20
2023-04-26T19:25:32.544Z,1.20
2023-04-26T19:30:32.496Z,1.39
2023-04-26T19:35:32.415Z,1.79
2023-04-26T19:40:32.353Z,1.50
2023-04-26T19:45:32.298Z,1.20
2023-04-26T19:50:32.228Z,1.50
2023-04-26T19:55:32.152Z,1.79
2023-04-26T20:00:32.228Z,1.79
2023-04-26T20:05:32.024Z,1.39
2023-04-26T20:10:31.969Z,1.60
2023-04-26T20:15:33.750Z,3.00
2023-04-26T20:20:31.841Z,2.29
2023-04-26T20:25:31.768Z,1.90
2023-04-26T20:30:31.699Z,1.90
2023-04-26T20:35:31.624Z,1.70
2023-04-26T20:40:31.566Z,1.79
2023-04-26T20:45:31.490Z,2.59
2023-04-26T20:50:31.443Z,2.59
2023-04-26T20:55:31.365Z,2.90
2023-04-26T21:00:31.302Z,2.40
2023-04-26T21:05:31.239Z,2.09
2023-04-26T21:10:31.199Z,1.79
2023-04-26T21:15:31.102Z,2.09
2023-04-26T21:20:31.033Z,2.00
2023-04-26T21:25:30.967Z,2.00
2023-04-26T21:30:30.904Z,2.29
2023-04-26T21:35:30.830Z,1.90
2023-04-26T21:40:30.769Z,2.00
2023-04-26T21:45:30.692Z,2.00
2023-04-26T21:50:30.657Z,1.79
2023-04-26T21:55:30.562Z,2.29
2023-04-26T22:00:30.512Z,2.09
2023-04-26T22:05:30.427Z,1.90
2023-04-26T22:10:30.468Z,1.60
2023-04-26T22:15:30.302Z,2.20
2023-04-26T22:20:30.240Z,2.29
2023-04-26T22:25:30.170Z,1.70
2023-04-26T22:30:30.118Z,2.09
2023-04-26T22:35:30.088Z,2.00
2023-04-26T22:40:29.979Z,1.79
2023-04-26T22:45:29.919Z,2.09
2023-04-26T22:50:29.852Z,1.90
2023-04-26T22:55:29.778Z,1.90
2023-04-26T23:00:29.724Z,2.00
2023-04-26T23:05:29.649Z,2.09
2023-04-26T23:10:29.596Z,1.70
2023-04-26T23:15:29.520Z,1.79
2023-04-26T23:20:29.465Z,2.09
2023-04-26T23:25:29.400Z,2.29
2023-04-26T23:30:29.334Z,2.09
2023-04-26T23:35:29.260Z,2.40
2023-04-26T23:40:29.204Z,2.29
2023-04-26T23:45:29.132Z,2.00
2023-04-26T23:50:29.073Z,2.20
2023-04-26T23:55:29.006Z,2.09
